This is the latest recevied weather packets stored in our database for station/object IA5ITY-13. If no packets are shown the sender has not sent any weather packets the latest 10 day(s).
| Time | Temp. | Humidity | Pressure | Rain* | Wind** | Luminosity | Snow |
|---|---|---|---|---|---|---|---|
| 1777608613 | 15° C | 11% | 1021.3 hPa | 0 mm | - | - | - |
| 1777608309 | 15° C | 10% | 1021.2 hPa | 0 mm | - | - | - |
| 1777608033 | 15° C | 12% | 1021.1 hPa | 0 mm | - | - | - |
| 1777607708 | 15° C | 11% | 1021.1 hPa | 0 mm | - | - | - |
| 1777607412 | 15° C | 11% | 1021.1 hPa | 0 mm | - | - | - |
| 1777607111 | 15° C | 12% | 1021 hPa | 0 mm | - | - | - |
| 1777606813 | 15° C | 11% | 1021 hPa | 0 mm | - | - | - |
| 1777606510 | 15° C | 12% | 1020.9 hPa | 0 mm | - | - | - |
| 1777606222 | 13.89° C | 15% | 1021.2 hPa | 0 mm | - | - | - |
| 1777605909 | 15° C | 17% | 1021.2 hPa | 0 mm | - | - | - |
| 1777605612 | 13.89° C | 21% | 1021.1 hPa | 0 mm | - | - | - |
| 1777605312 | 15° C | 21% | 1021 hPa | 0 mm | - | - | - |
| 1777605013 | 13.89° C | 26% | 1021 hPa | 0 mm | - | - | - |
| 1777604709 | 13.89° C | 21% | 1021 hPa | 0 mm | - | - | - |
| 1777604433 | 13.89° C | 20% | 1020.9 hPa | 0 mm | - | - | - |
| 1777604108 | 13.89° C | 18% | 1020.9 hPa | 0 mm | - | - | - |
| 1777603813 | 15° C | 14% | 1020.8 hPa | 0 mm | - | - | - |
| 1777603512 | 13.89° C | 21% | 1020.8 hPa | 0 mm | - | - | - |
| 1777603213 | 13.89° C | 21% | 1020.8 hPa | 0 mm | - | - | - |
| 1777602909 | 13.89° C | 20% | 1020.9 hPa | 0 mm | - | - | - |
| 1777602624 | 13.89° C | 22% | 1020.9 hPa | 0 mm | - | - | - |
| 1777602309 | 15° C | 22% | 1020.8 hPa | 0 mm | - | - | - |
| 1777602014 | 15° C | 20% | 1020.8 hPa | 0 mm | - | - | - |
| 1777601109 | 13.89° C | 20% | 1020.7 hPa | 0 mm | - | - | - |
| 1777586434 | 13.89° C | 36% | 1019.7 hPa | 0 mm | - | - | - |
* Rain latest hour (hover to see other rain measurements)
** Current wind speed in m/s (hover to see current wind gust speed)